Time;durP1;ratioP1;P1;durP2;ratioP2;P2;SDS_P1;SDS_P2;PMS_P1;PMS_P2;Temp;Humidity;BMP_temperature;BMP_pressure;BME280_temperature;BME280_humidity;BME280_pressure;Samples;Min_cycle;Max_cycle;Signal;HPM_P1;HPM_P2
2021/08/30 00:01:34;;;;;;;5.88;2.67;;;26.20;40.00;;;;;;20924636;27;80698;-70
2021/08/30 00:11:36;;;;;;;7.95;3.03;;;26.20;40.30;;;;;;20942441;27;81833;-71
2021/08/30 00:21:37;;;;;;;4.63;2.53;;;26.00;40.60;;;;;;20961665;27;81359;-71
2021/08/30 00:31:39;;;;;;;6.32;2.20;;;25.90;40.50;;;;;;20975846;27;81905;-71
2021/08/30 00:41:40;;;;;;;5.00;2.05;;;25.70;40.80;;;;;;20973557;27;80558;-72
2021/08/30 00:51:42;;;;;;;5.47;2.40;;;25.70;40.80;;;;;;20955429;27;80814;-72
2021/08/30 01:01:44;;;;;;;8.93;2.58;;;25.80;41.10;;;;;;20973614;27;80339;-71
2021/08/30 01:12:09;;;;;;;4.47;2.03;;;25.90;40.90;;;;;;20955375;27;81471;-68
2021/08/30 01:22:13;;;;;;;5.65;2.70;;;25.80;41.30;;;;;;20971686;27;80511;-69
2021/08/30 01:32:32;;;;;;;7.18;2.78;;;25.80;41.70;;;;;;20970801;27;80114;-68
2021/08/30 01:42:36;;;;;;;6.40;2.17;;;25.60;43.60;;;;;;20970714;27;82101;-68
2021/08/30 01:52:50;;;;;;;2.78;1.90;;;25.50;42.80;;;;;;20969385;27;80627;-70
2021/08/30 02:02:52;;;;;;;5.68;1.80;;;25.50;42.20;;;;;;20949989;27;80949;-69
2021/08/30 02:12:53;;;;;;;5.78;2.45;;;25.40;42.60;;;;;;20967980;27;81152;-68
2021/08/30 02:23:02;;;;;;;4.88;1.67;;;25.30;42.90;;;;;;20967447;27;80701;-68
2021/08/30 02:33:12;;;;;;;4.18;1.55;;;25.20;42.70;;;;;;20966040;27;80898;-69
2021/08/30 02:43:22;;;;;;;7.43;1.77;;;25.00;42.10;;;;;;20967306;27;81806;-70
2021/08/30 02:53:44;;;;;;;3.95;1.60;;;24.90;42.80;;;;;;20966063;27;80359;-70
2021/08/30 03:03:55;;;;;;;6.07;1.85;;;24.80;42.60;;;;;;20947453;27;80946;-69
2021/08/30 03:14:01;;;;;;;5.18;1.90;;;24.70;42.40;;;;;;20964138;27;80592;-70
2021/08/30 03:24:14;;;;;;;3.20;1.70;;;24.50;41.50;;;;;;20964333;27;80852;-68
2021/08/30 03:34:17;;;;;;;4.82;1.50;;;24.40;41.40;;;;;;20947018;27;81185;-68
2021/08/30 03:44:20;;;;;;;3.13;1.70;;;24.30;42.00;;;;;;20963526;27;80813;-71
2021/08/30 03:54:21;;;;;;;4.45;1.60;;;24.10;41.90;;;;;;20962989;27;81570;-67
2021/08/30 04:04:26;;;;;;;6.90;2.10;;;24.00;43.50;;;;;;20972882;27;80854;-69
2021/08/30 04:14:30;;;;;;;5.20;1.83;;;23.90;43.30;;;;;;20926068;27;81227;-67
2021/08/30 04:24:51;;;;;;;5.95;1.85;;;23.80;43.10;;;;;;20963732;27;80341;-68
2021/08/30 04:35:13;;;;;;;5.30;2.20;;;23.60;43.20;;;;;;20975065;27;80121;-68
2021/08/30 04:45:37;;;;;;;5.22;1.83;;;23.50;43.50;;;;;;20975034;27;80459;-69
2021/08/30 04:55:58;;;;;;;9.60;3.20;;;23.40;43.80;;;;;;20960383;27;82953;-68
2021/08/30 05:06:19;;;;;;;6.30;2.00;;;23.30;45.00;;;;;;20973476;27;83035;-70
2021/08/30 05:16:32;;;;;;;5.88;2.10;;;23.10;45.00;;;;;;20971930;27;81918;-70
2021/08/30 05:26:49;;;;;;;7.47;2.00;;;23.00;45.70;;;;;;20955527;27;80802;-68
2021/08/30 05:37:11;;;;;;;5.23;2.47;;;22.90;48.60;;;;;;20972022;27;82871;-68
2021/08/30 05:47:13;;;;;;;7.13;2.03;;;22.80;49.60;;;;;;20969297;27;81109;-69
2021/08/30 05:57:23;;;;;;;7.25;2.40;;;22.90;49.30;;;;;;20968389;27;80505;-69
2021/08/30 06:07:26;;;;;;;6.53;2.40;;;22.90;48.80;;;;;;20950340;27;79938;-65
2021/08/30 06:17:34;;;;;;;4.65;1.95;;;22.90;48.80;;;;;;20967513;27;80370;-65
2021/08/30 06:27:40;;;;;;;8.13;2.67;;;22.90;48.60;;;;;;20949212;27;81066;-66
2021/08/30 06:37:54;;;;;;;10.18;2.55;;;22.80;49.20;;;;;;20874800;27;81633;-73
2021/08/30 06:48:01;;;;;;;9.95;3.22;;;22.90;49.10;;;;;;20912338;27;80579;-76
2021/08/30 06:58:10;;;;;;;8.25;2.63;;;22.90;49.80;;;;;;20941979;27;80570;-73
2021/08/30 07:08:12;;;;;;;10.20;2.28;;;23.00;49.00;;;;;;20967985;27;81866;-74
2021/08/30 07:18:18;;;;;;;6.97;1.75;;;23.10;49.10;;;;;;20968032;27;80147;-75
2021/08/30 07:28:21;;;;;;;10.73;2.75;;;23.30;48.70;;;;;;20967564;27;80104;-73
2021/08/30 07:38:25;;;;;;;10.25;3.08;;;23.30;48.40;;;;;;20976815;27;80909;-75
2021/08/30 07:48:30;;;;;;;6.88;2.92;;;23.40;48.20;;;;;;20901877;27;80354;-72
2021/08/30 07:58:42;;;;;;;7.40;2.50;;;23.60;48.20;;;;;;20978931;27;80612;-71
2021/08/30 08:08:47;;;;;;;7.75;3.22;;;23.90;46.90;;;;;;20954937;27;81766;-71
2021/08/30 08:18:57;;;;;;;8.85;3.05;;;24.30;46.30;;;;;;20956357;27;80392;-73
2021/08/30 08:29:08;;;;;;;5.57;3.03;;;24.80;45.70;;;;;;20971766;27;80886;-68
2021/08/30 08:39:16;;;;;;;7.72;2.97;;;25.10;45.20;;;;;;20969215;27;81767;-70
2021/08/30 08:49:20;;;;;;;10.00;3.30;;;25.40;44.80;;;;;;20964864;27;80897;-69
2021/08/30 08:59:24;;;;;;;8.32;3.05;;;25.50;44.60;;;;;;20930914;27;80845;-69
2021/08/30 09:09:28;;;;;;;5.50;3.08;;;25.70;44.40;;;;;;20883962;28;82124;-68
2021/08/30 09:19:41;;;;;;;6.07;3.05;;;26.20;43.40;;;;;;20868972;28;80749;-71
2021/08/30 09:29:43;;;;;;;7.15;2.58;;;26.40;42.90;;;;;;20885162;28;81859;-59
2021/08/30 09:39:47;;;;;;;5.10;2.80;;;27.20;41.30;;;;;;20860898;27;80723;-59
2021/08/30 09:49:52;;;;;;;5.88;2.55;;;27.70;39.80;;;;;;20811102;28;81798;-60
2021/08/30 10:00:05;;;;;;;5.03;2.40;;;28.10;38.40;;;;;;20885628;27;80587;-61
2021/08/30 10:10:08;;;;;;;6.05;2.25;;;29.20;36.40;;;;;;20972553;27;81908;-60
2021/08/30 10:20:23;;;;;;;3.65;2.15;;;30.00;34.70;;;;;;20966777;27;80911;-61
2021/08/30 10:30:32;;;;;;;4.85;2.65;;;31.20;32.60;;;;;;20900054;27;80950;-65
2021/08/30 10:40:36;;;;;;;5.53;2.88;;;32.30;31.10;;;;;;20885051;28;81799;-61
2021/08/30 10:50:45;;;;;;;5.53;2.78;;;33.50;29.60;;;;;;20885321;28;81913;-65
2021/08/30 11:00:57;;;;;;;3.70;2.20;;;35.70;26.60;;;;;;20947188;27;80639;-66
2021/08/30 11:11:14;;;;;;;7.97;2.40;;;38.40;23.70;;;;;;20961443;27;80902;-64
2021/08/30 11:21:15;;;;;;;8.52;2.55;;;40.20;22.50;;;;;;20969298;27;81828;-62
2021/08/30 11:31:25;;;;;;;6.05;2.45;;;42.30;20.00;;;;;;20968303;27;81730;-66
2021/08/30 11:41:35;;;;;;;5.18;2.70;;;44.50;18.10;;;;;;20951305;27;81818;-62
2021/08/30 11:51:43;;;;;;;2.92;2.03;;;46.70;17.00;;;;;;20967239;27;81974;-64
2021/08/30 12:01:45;;;;;;;6.28;2.83;;;46.10;17.00;;;;;;20963654;27;81606;-63
2021/08/30 12:11:52;;;;;;;5.03;2.45;;;48.30;15.80;;;;;;20966413;27;81098;-66
2021/08/30 12:22:01;;;;;;;6.57;2.40;;;47.70;16.20;;;;;;20954958;27;80682;-66
2021/08/30 12:32:05;;;;;;;3.20;2.30;;;46.50;17.30;;;;;;20979540;27;80697;-64
2021/08/30 12:42:09;;;;;;;3.15;2.05;;;40.00;21.10;;;;;;20980153;27;82070;-64
2021/08/30 12:52:11;;;;;;;4.88;2.78;;;45.90;16.80;;;;;;20978773;27;81819;-67
2021/08/30 13:02:15;;;;;;;3.85;2.53;;;49.60;15.60;;;;;;20977477;27;80712;-63
2021/08/30 13:12:17;;;;;;;5.57;2.15;;;46.40;16.60;;;;;;20958356;27;80739;-64
2021/08/30 13:22:22;;;;;;;5.25;2.08;;;44.50;17.70;;;;;;20977071;27;81704;-61
2021/08/30 13:32:26;;;;;;;4.78;2.25;;;39.50;21.20;;;;;;20974836;27;80562;-64
2021/08/30 13:42:46;;;;;;;2.97;2.00;;;41.90;19.00;;;;;;20975998;27;81795;-62
2021/08/30 13:52:49;;;;;;;4.50;2.17;;;41.10;19.20;;;;;;20975463;27;81862;-62
2021/08/30 14:02:52;;;;;;;3.85;2.47;;;42.70;18.10;;;;;;20955817;27;80839;-62
2021/08/30 14:13:00;;;;;;;3.78;2.67;;;42.90;17.40;;;;;;20957971;27;82042;-64
2021/08/30 14:23:18;;;;;;;4.00;2.65;;;41.50;18.30;;;;;;20972410;27;80745;-63
2021/08/30 14:33:22;;;;;;;3.63;2.20;;;42.20;17.70;;;;;;20972712;27;81863;-63
2021/08/30 14:43:25;;;;;;;4.00;3.20;;;47.70;14.70;;;;;;20971709;27;81811;-64
2021/08/30 14:53:31;;;;;;;4.65;3.00;;;43.50;16.00;;;;;;20971801;27;81737;-62
2021/08/30 15:03:37;;;;;;;3.28;2.92;;;49.00;13.40;;;;;;20970259;27;81937;-62
2021/08/30 15:13:44;;;;;;;3.22;2.85;;;52.00;12.30;;;;;;20970947;27;80266;-62
2021/08/30 15:23:46;;;;;;;2.97;2.50;;;49.00;13.10;;;;;;20950679;27;79914;-63
2021/08/30 15:33:52;;;;;;;4.90;2.47;;;44.10;15.60;;;;;;20969128;27;80413;-62
2021/08/30 15:44:00;;;;;;;5.18;3.38;;;39.90;17.60;;;;;;20967716;27;80737;-61
2021/08/30 15:54:04;;;;;;;3.70;2.72;;;40.20;17.00;;;;;;20972067;27;80434;-63
2021/08/30 16:04:11;;;;;;;4.10;2.58;;;42.30;15.90;;;;;;20963878;27;81842;-64
2021/08/30 16:14:16;;;;;;;5.80;2.42;;;40.40;16.50;;;;;;20981891;27;80703;-64
2021/08/30 16:24:20;;;;;;;5.65;2.65;;;40.80;16.00;;;;;;20979879;27;80114;-61
2021/08/30 16:34:22;;;;;;;4.55;2.53;;;38.30;17.70;;;;;;20979681;27;80793;-63
2021/08/30 16:44:24;;;;;;;6.20;2.35;;;40.10;16.60;;;;;;20960328;27;80797;-61
2021/08/30 16:54:27;;;;;;;4.50;2.55;;;36.40;20.60;;;;;;20976525;27;81075;-62
2021/08/30 17:04:32;;;;;;;4.47;2.72;;;35.20;21.20;;;;;;20957740;27;81764;-62
2021/08/30 17:14:34;;;;;;;5.00;2.63;;;34.40;21.90;;;;;;20976244;27;80881;-61
2021/08/30 17:24:36;;;;;;;5.30;2.85;;;33.80;22.70;;;;;;20959088;27;81914;-61
2021/08/30 17:34:38;;;;;;;6.45;2.92;;;33.00;24.50;;;;;;20978028;27;81956;-63
2021/08/30 17:44:42;;;;;;;4.40;3.00;;;32.50;25.90;;;;;;20975615;27;81079;-62
2021/08/30 17:54:45;;;;;;;6.10;2.92;;;31.80;26.30;;;;;;20975002;27;81697;-62
2021/08/30 18:04:49;;;;;;;5.47;2.83;;;31.30;27.30;;;;;;20964487;27;81769;-60
2021/08/30 18:14:51;;;;;;;10.20;2.60;;;30.90;28.00;;;;;;20945646;27;81250;-60
2021/08/30 18:24:53;;;;;;;7.15;3.10;;;30.90;28.30;;;;;;20964638;27;81813;-61
2021/08/30 18:34:55;;;;;;;7.50;3.38;;;30.70;28.70;;;;;;20968410;27;80469;-63
2021/08/30 18:44:58;;;;;;;5.53;2.97;;;30.40;29.00;;;;;;20959651;27;80742;-63
2021/08/30 18:55:04;;;;;;;7.78;3.08;;;30.20;29.50;;;;;;20969783;27;80754;-64
2021/08/30 19:05:06;;;;;;;5.53;3.10;;;29.90;30.10;;;;;;20967916;27;81785;-66
2021/08/30 19:15:09;;;;;;;9.43;3.67;;;29.70;30.70;;;;;;20946300;27;80551;-69
2021/08/30 19:25:10;;;;;;;6.80;3.08;;;29.50;30.80;;;;;;20967694;27;80697;-64
2021/08/30 19:35:12;;;;;;;11.27;3.03;;;29.30;31.30;;;;;;20981954;27;80820;-67
2021/08/30 19:45:15;;;;;;;8.00;3.75;;;29.20;31.70;;;;;;20981938;27;80041;-66
2021/08/30 19:55:17;;;;;;;9.77;4.00;;;29.00;31.90;;;;;;20980344;27;82024;-65
2021/08/30 20:05:20;;;;;;;7.22;4.53;;;28.90;33.60;;;;;;20979970;27;81888;-65
2021/08/30 20:15:22;;;;;;;6.85;4.35;;;28.80;35.10;;;;;;20980591;27;80758;-66
2021/08/30 20:25:29;;;;;;;7.90;4.43;;;28.50;36.10;;;;;;20978240;27;80584;-66
2021/08/30 20:35:30;;;;;;;8.77;5.00;;;28.30;36.90;;;;;;20976782;27;80714;-67
2021/08/30 20:45:31;;;;;;;8.00;3.85;;;28.10;37.40;;;;;;20975493;27;80637;-66
2021/08/30 20:55:34;;;;;;;6.32;3.85;;;27.90;37.40;;;;;;20976947;27;80990;-69
2021/08/30 21:05:35;;;;;;;9.50;4.43;;;27.80;37.40;;;;;;20975712;27;80682;-72
2021/08/30 21:15:38;;;;;;;8.20;4.40;;;27.70;37.60;;;;;;20975965;27;80995;-69
2021/08/30 21:25:41;;;;;;;10.05;4.43;;;27.50;37.90;;;;;;20973949;27;80075;-70
2021/08/30 21:35:42;;;;;;;8.32;4.35;;;27.40;38.40;;;;;;20974776;27;79802;-71
2021/08/30 21:45:47;;;;;;;7.32;4.70;;;27.30;38.90;;;;;;20973855;27;82018;-68
2021/08/30 21:55:54;;;;;;;7.50;4.43;;;27.10;39.20;;;;;;20972616;27;81916;-66
2021/08/30 22:05:56;;;;;;;9.60;4.80;;;27.00;40.30;;;;;;20972047;27;80765;-68
2021/08/30 22:15:57;;;;;;;10.35;5.18;;;26.80;40.30;;;;;;20954241;27;81865;-68
2021/08/30 22:26:00;;;;;;;7.43;4.00;;;26.60;40.50;;;;;;20971482;27;81878;-68
2021/08/30 22:36:02;;;;;;;6.43;4.78;;;26.50;40.90;;;;;;20952421;27;80651;-69
2021/08/30 22:46:04;;;;;;;5.95;4.13;;;26.40;41.10;;;;;;20951205;27;81011;-74
2021/08/30 22:56:07;;;;;;;8.43;4.65;;;26.20;41.00;;;;;;20969998;27;81677;-69
2021/08/30 23:06:09;;;;;;;10.05;4.32;;;26.10;41.30;;;;;;20966939;27;80758;-68
2021/08/30 23:16:11;;;;;;;8.02;4.47;;;26.10;41.90;;;;;;20949907;27;82161;-68
2021/08/30 23:26:13;;;;;;;7.88;4.57;;;26.00;41.90;;;;;;20948471;27;81061;-69
2021/08/30 23:36:15;;;;;;;13.55;6.40;;;25.90;42.20;;;;;;20966811;27;80846;-67
2021/08/30 23:46:18;;;;;;;10.38;4.30;;;25.80;42.50;;;;;;20947495;27;80615;-68
2021/08/30 23:56:20;;;;;;;6.47;4.22;;;25.70;42.30;;;;;;20965553;27;80220;-69
